createdAt,value
2022-08-17T00:09:01.123Z,90.1
2022-08-17T00:39:18.285Z,90.7
2022-08-17T01:09:36.206Z,91.1
2022-08-17T01:39:53.991Z,91.3
2022-08-17T02:10:16.714Z,92.1
2022-08-17T02:40:36.242Z,92.2
2022-08-17T03:10:55.248Z,92.9
2022-08-17T03:41:11.914Z,93.6
2022-08-17T04:11:29.642Z,93.9
2022-08-17T04:41:47.197Z,93.8
2022-08-17T05:12:06.293Z,93.4
2022-08-17T05:42:24.195Z,91.7
2022-08-17T06:12:45.291Z,90.6
2022-08-17T06:43:06.868Z,89.6
2022-08-17T07:13:25.727Z,90.30001
2022-08-17T07:43:44.673Z,82.3
2022-08-17T08:14:01.832Z,91.2
2022-08-17T08:44:23.795Z,90.2
2022-08-17T09:14:46.955Z,90.2
2022-08-17T09:45:11.346Z,77.8
2022-08-17T10:15:34.246Z,77.6
2022-08-17T10:45:50.156Z,77.4
2022-08-17T11:16:12.966Z,76.7
2022-08-17T11:46:56.992Z,58.2
2022-08-17T12:16:58.747Z,65.8
2022-08-17T12:47:22.391Z,60.8
2022-08-17T13:17:54.168Z,53.3
2022-08-17T13:48:21.046Z,50.9
2022-08-17T14:18:19.207Z,57.2
2022-08-17T14:48:34.396Z,61.3
2022-08-17T15:18:52.339Z,60.1
2022-08-17T15:49:08.821Z,60.1
2022-08-17T16:19:26.326Z,58.4
2022-08-17T16:49:45.780Z,56.6
2022-08-17T17:20:03.367Z,52.3
2022-08-17T17:50:20.854Z,54.7
2022-08-17T18:20:46.494Z,56.8
2022-08-17T18:50:59.636Z,59.5
2022-08-17T19:21:16.391Z,63.5
2022-08-17T19:51:32.233Z,64.9
2022-08-17T20:21:49.951Z,68.2
2022-08-17T20:52:06.543Z,72.4
2022-08-17T21:22:22.217Z,76.6
2022-08-17T21:52:41.608Z,79.4
2022-08-17T22:23:07.422Z,80
2022-08-17T22:53:28.091Z,80.80001
2022-08-17T23:23:45.657Z,83.4
